createdAt,value
2018-07-26T00:04:19.212Z,101182.37
2018-07-26T00:09:12.567Z,101193.69
2018-07-26T00:14:05.839Z,101188.83
2018-07-26T00:19:00.096Z,101183.22
2018-07-26T00:23:53.204Z,101179.98
2018-07-26T00:28:46.677Z,101184.92
2018-07-26T00:33:40.920Z,101187.27
2018-07-26T00:38:33.900Z,101190.09
2018-07-26T00:43:29.357Z,101184.30
2018-07-26T00:48:22.008Z,101186.42
2018-07-26T00:53:18.412Z,101181.89
2018-07-26T00:58:10.855Z,101173.96
2018-07-26T01:03:04.356Z,101181.06
2018-07-26T01:08:00.646Z,101181.41
2018-07-26T01:12:56.205Z,101180.02
2018-07-26T01:17:51.901Z,101176.72
2018-07-26T01:22:44.865Z,101172.91
2018-07-26T01:27:40.984Z,101173.84
2018-07-26T01:32:36.539Z,101176.39
2018-07-26T01:37:31.973Z,101171.88
2018-07-26T01:42:29.596Z,101170.33
2018-07-26T01:47:26.294Z,101170.00
2018-07-26T01:52:21.639Z,101166.47
2018-07-26T01:57:17.187Z,101177.80
2018-07-26T02:02:12.568Z,101175.16
2018-07-26T02:07:07.936Z,101171.42
2018-07-26T02:12:04.618Z,101167.84
2018-07-26T02:17:00.255Z,101170.92
2018-07-26T02:21:55.712Z,101172.23
2018-07-26T02:26:51.268Z,101169.06
2018-07-26T02:31:46.932Z,101173.24
2018-07-26T02:36:41.741Z,101168.52
2018-07-26T02:41:37.431Z,101174.69
2018-07-26T02:46:33.076Z,101172.03
2018-07-26T02:51:30.484Z,101175.37
2018-07-26T02:56:24.557Z,101178.80
2018-07-26T03:01:22.467Z,101175.48
2018-07-26T03:06:18.684Z,101180.68
2018-07-26T03:11:16.629Z,101174.61
2018-07-26T03:16:11.915Z,101173.91
2018-07-26T03:21:08.044Z,101165.34
2018-07-26T03:26:03.221Z,101165.15
2018-07-26T03:31:00.738Z,101166.79
2018-07-26T03:35:58.112Z,101166.59
2018-07-26T03:41:01.639Z,101164.39
2018-07-26T03:46:21.083Z,101157.81
2018-07-26T03:51:24.462Z,101161.53
2018-07-26T03:56:25.265Z,101165.95
2018-07-26T04:01:25.312Z,101175.78
2018-07-26T04:06:26.663Z,101171.84
2018-07-26T04:11:27.981Z,101172.77
2018-07-26T04:16:28.997Z,101172.45
2018-07-26T04:21:25.549Z,101178.02
2018-07-26T04:26:22.557Z,101183.38
2018-07-26T04:31:19.779Z,101178.86
2018-07-26T04:36:17.933Z,101182.95
2018-07-26T04:41:13.179Z,101182.80
2018-07-26T04:46:08.856Z,101184.78
2018-07-26T04:51:04.401Z,101183.66
2018-07-26T04:56:00.086Z,101184.13
2018-07-26T05:00:55.615Z,101187.30
2018-07-26T05:05:51.433Z,101186.49
2018-07-26T05:10:48.540Z,101187.29
2018-07-26T05:15:43.849Z,101187.77
2018-07-26T05:20:39.912Z,101178.88
2018-07-26T05:25:35.495Z,101183.55
2018-07-26T05:30:31.154Z,101181.07
2018-07-26T05:35:26.946Z,101187.42
2018-07-26T05:40:23.772Z,101186.48
2018-07-26T05:45:18.296Z,101193.70
2018-07-26T05:50:13.924Z,101181.80
2018-07-26T05:55:09.809Z,101186.70
2018-07-26T06:00:03.445Z,101190.52
2018-07-26T06:04:59.401Z,101190.38
2018-07-26T06:09:55.164Z,101187.14
2018-07-26T06:14:50.991Z,101190.55
2018-07-26T06:19:47.263Z,101193.72
2018-07-26T06:24:42.776Z,101191.77
2018-07-26T06:29:39.475Z,101203.39
2018-07-26T06:34:31.868Z,101186.06
2018-07-26T06:39:25.573Z,101179.20
2018-07-26T06:44:18.902Z,101183.19
2018-07-26T06:49:13.444Z,101178.23
2018-07-26T06:54:06.534Z,101184.25
2018-07-26T06:59:00.169Z,101183.35
2018-07-26T07:03:54.365Z,101191.70
2018-07-26T07:08:47.952Z,101185.66
2018-07-26T07:13:41.260Z,101183.17
2018-07-26T07:18:34.928Z,101181.77
2018-07-26T07:23:28.482Z,101183.20
2018-07-26T07:28:25.159Z,101180.23
2018-07-26T07:33:18.677Z,101174.79
2018-07-26T07:38:13.448Z,101172.05
2018-07-26T07:43:07.163Z,101170.31
2018-07-26T07:48:00.836Z,101173.13
2018-07-26T07:52:55.916Z,101179.66
2018-07-26T07:57:50.759Z,101180.80
2018-07-26T08:02:44.968Z,101181.27
2018-07-26T08:07:38.181Z,101176.93
2018-07-26T08:12:32.796Z,101175.39
2018-07-26T08:17:25.808Z,101180.78
2018-07-26T08:22:19.441Z,101184.84
2018-07-26T08:27:13.846Z,101181.95
2018-07-26T08:32:08.096Z,101183.25
2018-07-26T08:37:01.397Z,101175.22
2018-07-26T08:41:55.288Z,101176.13
2018-07-26T08:46:50.423Z,101175.02
2018-07-26T08:51:45.588Z,101178.99
2018-07-26T08:56:39.473Z,101172.20
2018-07-26T09:01:34.620Z,101175.56
2018-07-26T09:06:29.481Z,101171.94
2018-07-26T09:11:25.494Z,101166.13
2018-07-26T09:16:19.222Z,101165.03
2018-07-26T09:21:13.193Z,101162.16
2018-07-26T09:26:07.432Z,101157.00
2018-07-26T09:31:01.797Z,101158.31
2018-07-26T09:35:55.905Z,101156.08
2018-07-26T09:40:49.692Z,101150.14
2018-07-26T09:45:45.240Z,101152.96
2018-07-26T09:50:40.392Z,101145.63
2018-07-26T09:55:35.205Z,101139.36
2018-07-26T10:00:29.347Z,101139.16
2018-07-26T10:05:23.402Z,101130.54
2018-07-26T10:10:19.289Z,101128.55
2018-07-26T10:15:15.770Z,101129.47
2018-07-26T10:20:10.878Z,101122.92
2018-07-26T10:25:05.870Z,101119.77
2018-07-26T10:30:00.904Z,101107.80
2018-07-26T10:34:56.288Z,101106.68
2018-07-26T10:39:51.507Z,101110.70
2018-07-26T10:44:44.345Z,101105.00
2018-07-26T10:49:39.974Z,101094.87
2018-07-26T10:54:36.284Z,101099.79
2018-07-26T10:59:31.559Z,101092.16
2018-07-26T11:04:27.394Z,101095.45
2018-07-26T11:09:22.909Z,101087.14
2018-07-26T11:14:19.113Z,101078.94
2018-07-26T11:19:14.632Z,101084.34
2018-07-26T11:24:12.004Z,101081.95
2018-07-26T11:29:08.141Z,101083.03
2018-07-26T11:34:21.919Z,101074.69
2018-07-26T11:39:21.114Z,101064.18
2018-07-26T11:49:36.725Z,101058.19
2018-07-26T11:54:42.124Z,101044.08
2018-07-26T11:59:46.275Z,101036.16
2018-07-26T12:04:54.581Z,101035.90
2018-07-26T12:09:48.244Z,101030.22
2018-07-26T12:14:44.725Z,101020.24
2018-07-26T12:19:40.557Z,101022.41
2018-07-26T12:24:39.726Z,101024.13
2018-07-26T12:29:35.381Z,101009.03
2018-07-26T12:35:39.520Z,101001.16
2018-07-26T12:40:43.770Z,100988.84
2018-07-26T12:45:40.578Z,100999.81
2018-07-26T12:50:36.105Z,100994.35
2018-07-26T12:55:32.692Z,100989.97
2018-07-26T13:00:26.855Z,100989.81
2018-07-26T13:05:27.635Z,100988.15
2018-07-26T13:10:26.694Z,100982.40
2018-07-26T13:15:19.548Z,100974.27
2018-07-26T13:20:21.884Z,100973.23
2018-07-26T13:25:20.629Z,100971.59
2018-07-26T13:30:15.707Z,100964.48
2018-07-26T13:35:12.872Z,100959.22
2018-07-26T13:40:08.801Z,100959.95
2018-07-26T13:45:24.663Z,100951.13
2018-07-26T13:50:21.024Z,100943.94
2018-07-26T13:55:19.678Z,100950.56
2018-07-26T14:00:16.922Z,100942.83
2018-07-26T14:05:11.943Z,100943.55
2018-07-26T14:10:07.191Z,100941.48
2018-07-26T14:15:04.728Z,100929.46
2018-07-26T14:20:01.501Z,100926.44
2018-07-26T14:24:56.689Z,100918.15
2018-07-26T14:29:54.673Z,100919.82
2018-07-26T14:34:49.533Z,100914.57
2018-07-26T14:39:45.033Z,100912.38
2018-07-26T14:44:43.615Z,100911.24
2018-07-26T14:49:41.831Z,100908.83
2018-07-26T14:54:37.343Z,100905.98
2018-07-26T14:59:31.789Z,100910.64
2018-07-26T15:04:26.663Z,100913.45
2018-07-26T15:09:21.587Z,100915.48
2018-07-26T15:14:21.409Z,100914.88
2018-07-26T15:19:20.472Z,100907.03
2018-07-26T15:24:19.045Z,100897.80
2018-07-26T15:29:14.462Z,100899.98
2018-07-26T15:34:09.727Z,100904.09
2018-07-26T15:39:05.120Z,100898.04
2018-07-26T15:43:59.802Z,100893.84
2018-07-26T15:48:54.440Z,100887.85
2018-07-26T15:53:50.145Z,100874.80
2018-07-26T15:58:46.131Z,100868.50
2018-07-26T16:03:43.017Z,100866.30
2018-07-26T16:08:43.488Z,100859.77
2018-07-26T16:13:38.324Z,100862.03
2018-07-26T16:18:33.578Z,100861.26
2018-07-26T16:23:28.494Z,100869.77
2018-07-26T16:28:24.181Z,100876.08
2018-07-26T16:33:18.531Z,100877.37
2018-07-26T16:38:14.638Z,100882.44
2018-07-26T16:43:09.118Z,100885.44
2018-07-26T16:48:05.307Z,100884.69
2018-07-26T16:53:00.323Z,100884.44
2018-07-26T16:57:56.329Z,100874.84
2018-07-26T17:02:51.730Z,100876.84
2018-07-26T17:07:44.163Z,100874.59
2018-07-26T17:12:39.620Z,100876.38
2018-07-26T17:17:35.742Z,100878.77
2018-07-26T17:22:30.528Z,100879.20
2018-07-26T17:27:25.634Z,100882.19
2018-07-26T17:32:20.732Z,100881.56
2018-07-26T17:37:15.710Z,100883.94
2018-07-26T17:42:15.824Z,100889.78
2018-07-26T17:47:11.199Z,100887.80
2018-07-26T17:52:07.020Z,100890.00
2018-07-26T17:57:01.813Z,100892.00
2018-07-26T18:01:56.888Z,100900.80
2018-07-26T18:06:51.817Z,100910.53
2018-07-26T18:11:44.605Z,100913.30
2018-07-26T18:16:40.114Z,100900.41
2018-07-26T18:21:35.142Z,100900.89
2018-07-26T18:26:30.214Z,100906.61
2018-07-26T18:31:27.493Z,100915.83
2018-07-26T18:36:19.204Z,100913.66
2018-07-26T18:41:12.257Z,100917.80
2018-07-26T18:46:07.740Z,100925.73
2018-07-26T18:51:01.769Z,100930.34
2018-07-26T18:55:54.855Z,100933.41
2018-07-26T19:17:11.116Z,100952.54
2018-07-26T19:22:07.242Z,100953.05
2018-07-26T19:27:00.222Z,100957.97
2018-07-26T19:31:53.761Z,100962.67
2018-07-26T19:36:48.968Z,100961.58
2018-07-26T19:41:44.665Z,100968.38
2018-07-26T19:46:41.508Z,100971.23
2018-07-26T19:51:35.265Z,100977.78
2018-07-26T19:56:29.392Z,100971.77
2018-07-26T20:01:26.794Z,100975.99
2018-07-26T20:06:20.507Z,100977.38
2018-07-26T20:11:15.067Z,100976.70
2018-07-26T20:16:08.264Z,100976.51
2018-07-26T20:21:01.745Z,100973.93
2018-07-26T20:25:54.997Z,100971.08
2018-07-26T20:30:48.552Z,100977.84
2018-07-26T20:35:42.273Z,100971.38
2018-07-26T20:40:35.742Z,100973.91
2018-07-26T20:45:29.078Z,100982.11
2018-07-26T20:50:22.544Z,100987.98
2018-07-26T20:55:18.156Z,100989.36
2018-07-26T21:00:12.270Z,100997.23
2018-07-26T21:05:05.313Z,101001.56
2018-07-26T21:09:58.743Z,101002.02
2018-07-26T21:14:52.223Z,101003.61
2018-07-26T21:19:47.620Z,101005.19
2018-07-26T21:24:41.604Z,101003.97
2018-07-26T21:29:35.790Z,101010.77
2018-07-26T21:34:30.123Z,101014.62
2018-07-26T21:39:23.528Z,101012.81
2018-07-26T21:44:16.820Z,101013.39
2018-07-26T21:49:10.229Z,101013.72
2018-07-26T21:54:03.508Z,101012.69
2018-07-26T21:58:56.720Z,101016.75
2018-07-26T22:03:51.176Z,101021.13
2018-07-26T22:08:44.648Z,101028.20
2018-07-26T22:13:38.061Z,101028.74
2018-07-26T22:18:34.104Z,101031.70
2018-07-26T22:23:27.016Z,101037.22
2018-07-26T22:28:20.440Z,101047.81
2018-07-26T22:33:13.850Z,101049.34
2018-07-26T22:38:08.258Z,101048.17
2018-07-26T22:43:01.488Z,101049.46
2018-07-26T22:47:56.041Z,101048.62
2018-07-26T22:52:50.210Z,101048.75
2018-07-26T22:57:43.433Z,101048.09
2018-07-26T23:02:36.929Z,101045.61
2018-07-26T23:07:31.170Z,101047.34
2018-07-26T23:12:24.440Z,101047.97
2018-07-26T23:17:19.671Z,101050.48
2018-07-26T23:22:13.667Z,101049.69
2018-07-26T23:27:07.859Z,101053.57
2018-07-26T23:32:01.021Z,101049.89
2018-07-26T23:36:55.816Z,101051.53
2018-07-26T23:41:48.799Z,101054.75
2018-07-26T23:46:42.063Z,101064.66
2018-07-26T23:51:36.570Z,101062.83
2018-07-26T23:56:30.583Z,101062.35
